Terminal Aerodrome Forecast
Issued by NWS

Home | Current Version | Previous Version | Text Only | Print | Product List | Glossary On
Versions: 1 2 3 4 5 6 7 8 9 10 11 12 13 14 15 16 17 18 19 20 21 22 23 24 25 26
000
FTAK31 PANC 020930 AAA
TAFAHO
TAF AMD
PAHO 020930Z 0210/0306 25006KT P6SM SCT015 OVC035
      TEMPO 0210/0212 -SHRA BKN015
     FM021200 25005KT P6SM -RA BKN015 OVC030
     FM021900 25010KT P6SM FEW080 SCT250=

USA.gov is the U.S. government's official web portal to all federal, state and local government web resources and services.